»·PEaware :: N4657 KSNA-KBUR

N4657 :: KSNA-KBUR

FLIGHT INFORMATION

Flight Status: Arrived
Operator: Privately registered:
United States
More flights under this callsign
Pilot: Daniel P. (20187)
Aircraft: PILATUS PC-12 EAGLE
(PC12)
More flights by this aircraft type
Origin: KSNA John Wayne-Orange Co
United States
Destination: KBUR Bob Hope-Burbank
United States
More flights between these airports :: More routes between these airports
Route: +SLI V23 LAX LAX316R SILEX
File this flight plan on PilotEdge
Remarks: I3 TEST
Altitude:
(Current/Filed)
40ft
Speed:
(Current/Filed)
180kts
Departed: 12-Sep-18 12:35 PM
Arrived: 12-Sep-18 01:00 PM
Distance/Time
Traveled:
40nm/0:25
Distance/Time
To Go:
Arrived

Flight Plot

Page will automatically refresh every two minutes.


Map Options




Map Legend


Flown Route
Filed Route
Departure Airport
Arrival Airport
Navaid (VOR, NDB)
Fix

Horizontal Profiles

Position Reports

Time Latitude Longitude Heading Altitude Ground
Speed
12-Sep-18 11:32 33.674113 -117.871940 118 60ft 0kts
12-Sep-18 11:33 33.674113 -117.871940 118 60ft 0kts
12-Sep-18 11:34 33.674113 -117.871940 118 60ft 0kts
12-Sep-18 11:35 33.674113 -117.871940 118 60ft 0kts
12-Sep-18 11:36 33.674113 -117.871940 118 60ft 0kts
12-Sep-18 11:37 33.674113 -117.871940 118 60ft 0kts
12-Sep-18 11:38 33.674113 -117.871940 118 60ft 0kts
12-Sep-18 11:39 33.674113 -117.871940 118 60ft 0kts
12-Sep-18 11:40 33.674113 -117.871940 118 60ft 0kts
12-Sep-18 11:41 33.674113 -117.871940 118 60ft 0kts
12-Sep-18 11:42 33.674113 -117.871940 118 60ft 0kts
12-Sep-18 11:43 33.674113 -117.871940 118 60ft 0kts
12-Sep-18 11:44 33.674113 -117.871940 118 60ft 0kts
12-Sep-18 11:45 33.674113 -117.871940 118 60ft 0kts
12-Sep-18 11:46 33.674113 -117.871940 118 60ft 0kts
12-Sep-18 11:47 33.674113 -117.871940 118 60ft 0kts
12-Sep-18 11:48 33.674113 -117.871940 118 60ft 0kts
12-Sep-18 11:49 33.674113 -117.871940 118 60ft 0kts
12-Sep-18 11:50 33.674113 -117.871940 118 60ft 0kts
12-Sep-18 11:51 33.674113 -117.871940 118 60ft 0kts
12-Sep-18 11:52 33.674113 -117.871940 118 60ft 0kts
12-Sep-18 11:53 33.674113 -117.871940 118 60ft 0kts
12-Sep-18 11:54 33.674113 -117.871940 118 60ft 0kts
12-Sep-18 11:55 33.674113 -117.871940 118 60ft 0kts
12-Sep-18 11:56 33.674113 -117.871940 118 60ft 0kts
12-Sep-18 11:57 33.674113 -117.871940 118 60ft 0kts
12-Sep-18 11:58 33.674113 -117.871940 118 60ft 0kts
12-Sep-18 11:59 33.674113 -117.871940 118 60ft 0kts
12-Sep-18 12:00 33.674113 -117.871940 118 60ft 0kts
12-Sep-18 12:01 33.674113 -117.871940 118 60ft 0kts
12-Sep-18 12:02 33.674113 -117.871940 118 60ft 0kts
12-Sep-18 12:03 33.674113 -117.871940 118 60ft 0kts
12-Sep-18 12:04 33.674113 -117.871940 118 60ft 0kts
12-Sep-18 12:05 33.674113 -117.871940 118 60ft 0kts
12-Sep-18 12:06 33.674113 -117.871940 118 60ft 0kts
12-Sep-18 12:07 33.674113 -117.871940 118 60ft 0kts
12-Sep-18 12:08 33.674113 -117.871940 118 60ft 0kts
12-Sep-18 12:09 33.674113 -117.871940 118 60ft 0kts
12-Sep-18 12:10 33.674113 -117.871940 118 60ft 0kts
12-Sep-18 12:11 33.674113 -117.871940 118 60ft 0kts
12-Sep-18 12:12 33.674113 -117.871940 118 60ft 0kts
12-Sep-18 12:13 33.674113 -117.871940 118 60ft 0kts
12-Sep-18 12:14 33.674113 -117.871940 118 60ft 0kts
12-Sep-18 12:15 33.674113 -117.871940 118 60ft 0kts
12-Sep-18 12:16 33.674113 -117.871940 118 60ft 0kts
12-Sep-18 12:17 33.674113 -117.871940 118 60ft 0kts
12-Sep-18 12:18 33.674113 -117.871940 118 60ft 0kts
12-Sep-18 12:19 33.674113 -117.871940 118 60ft 0kts
12-Sep-18 12:20 33.674113 -117.871940 118 60ft 0kts
12-Sep-18 12:21 33.674113 -117.871940 118 60ft 0kts
12-Sep-18 12:22 33.674113 -117.871940 118 60ft 0kts
12-Sep-18 12:23 33.674113 -117.871940 118 60ft 0kts
12-Sep-18 12:24 33.674113 -117.871940 118 60ft 0kts
12-Sep-18 12:25 33.674113 -117.871940 118 60ft 0kts
12-Sep-18 12:26 33.674113 -117.871940 118 60ft 0kts
12-Sep-18 12:27 33.674113 -117.871940 118 60ft 0kts
12-Sep-18 12:28 33.674113 -117.871940 118 60ft 0kts
12-Sep-18 12:29 33.674113 -117.871940 118 60ft 0kts
12-Sep-18 12:30 33.674113 -117.871940 118 60ft 0kts
12-Sep-18 12:31 33.674720 -117.870946 24 60ft 9kts
12-Sep-18 12:32 33.677079 -117.869486 26 60ft 10kts
12-Sep-18 12:33 33.679821 -117.867884 18 60ft 5kts
12-Sep-18 12:34 33.681206 -117.866438 116 60ft 0kts
12-Sep-18 12:35 33.681206 -117.866438 116 60ft 0kts
12-Sep-18 12:36 33.680135 -117.865999 208 60ft 27kts
12-Sep-18 12:37 33.655794 -117.877072 186 1634ft 103kts
12-Sep-18 12:38 33.627440 -117.880018 185 3624ft 117kts
12-Sep-18 12:39 33.587484 -117.883143 188 4917ft 157kts
12-Sep-18 12:40 33.588515 -117.923211 310 5995ft 178kts
12-Sep-18 12:41 33.627571 -117.970630 311 6004ft 213kts
12-Sep-18 12:42 33.668526 -118.020554 311 6002ft 210kts
12-Sep-18 12:43 33.709265 -118.070375 311 6002ft 209kts
12-Sep-18 12:44 33.749509 -118.119949 311 6006ft 207kts
12-Sep-18 12:45 33.789080 -118.169527 311 6011ft 205kts
12-Sep-18 12:46 33.828012 -118.218156 311 6016ft 204kts
12-Sep-18 12:47 33.867736 -118.268069 305 6006ft 214kts
12-Sep-18 12:48 33.893809 -118.332760 292 6012ft 217kts
12-Sep-18 12:49 33.919525 -118.397847 292 6012ft 217kts
12-Sep-18 12:50 33.949983 -118.443585 331 6009ft 213kts
12-Sep-18 12:51 34.008484 -118.482471 331 6004ft 201kts
12-Sep-18 12:52 34.050915 -118.510876 330 6007ft 157kts
12-Sep-18 12:53 34.080391 -118.530714 330 6019ft 149kts
12-Sep-18 12:54 34.124967 -118.560644 330 6021ft 168kts
12-Sep-18 12:55 34.166075 -118.588285 331 6020ft 169kts
12-Sep-18 12:56 34.197270 -118.584651 58 5666ft 165kts
12-Sep-18 12:57 34.211759 -118.536214 105 4585ft 158kts
12-Sep-18 12:58 34.199863 -118.485007 91 3320ft 101kts
12-Sep-18 12:59 34.199201 -118.455185 93 1921ft 97kts
12-Sep-18 13:00 34.198973 -118.414256 93 1395ft 125kts
12-Sep-18 13:01 34.198099 -118.378697 95 937ft 92kts
12-Sep-18 13:02 34.198101 -118.357991 10 711ft 9kts
12-Sep-18 13:03 34.198509 -118.357987 353 712ft 0kts
12-Sep-18 13:04 34.198509 -118.357987 353 712ft 0kts
12-Sep-18 13:05 34.198509 -118.357987 353 712ft 0kts
12-Sep-18 13:06 34.198509 -118.357987 353 712ft 0kts
12-Sep-18 13:07 34.198897 -118.359875 269 718ft 10kts
12-Sep-18 13:08 34.199635 -118.361654 267 724ft 8kts
12-Sep-18 13:09 34.199709 -118.361906 181 724ft 0kts
12-Sep-18 13:10 34.199709 -118.361906 181 724ft 0kts
12-Sep-18 13:11 34.199709 -118.361906 181 724ft 0kts
12-Sep-18 13:12 34.199709 -118.361906 181 724ft 0kts
12-Sep-18 13:13 34.199709 -118.361906 181 724ft 0kts
12-Sep-18 13:14 34.199709 -118.361906 181 724ft 0kts
12-Sep-18 13:15 34.199709 -118.361906 181 724ft 0kts
12-Sep-18 13:16 34.199709 -118.361906 181 724ft 0kts

Navigation Log

Ident Type
Flight plan parsing failed, navigation log unavailable